sensor_id;sensor_type;location;lat;lon;timestamp;pressure;altitude;pressure_sealevel;temperature;humidity
73936;BME280;62287;50.858;0.252;2023-08-01T00:00:00;100024.06;;;20.06;43.73
73936;BME280;62287;50.858;0.252;2023-08-01T00:00:31;100023.95;;;19.40;43.76
73936;BME280;62287;50.858;0.252;2023-08-01T00:01:03;100026.58;;;19.82;43.37
73936;BME280;62287;50.858;0.252;2023-08-01T00:01:34;100026.61;;;20.35;43.31
73936;BME280;62287;50.858;0.252;2023-08-01T00:02:06;100024.48;;;20.30;43.26
73936;BME280;62287;50.858;0.252;2023-08-01T00:02:38;100026.56;;;20.06;43.33
73936;BME280;62287;50.858;0.252;2023-08-01T00:03:10;100026.91;;;19.88;43.48
73936;BME280;62287;50.858;0.252;2023-08-01T00:03:44;100025.46;;;19.86;43.53
73936;BME280;62287;50.858;0.252;2023-08-01T00:04:15;100028.07;;;19.54;43.52
73936;BME280;62287;50.858;0.252;2023-08-01T00:04:46;100027.69;;;20.13;43.37
73936;BME280;62287;50.858;0.252;2023-08-01T00:05:17;100027.61;;;19.61;43.44
73936;BME280;62287;50.858;0.252;2023-08-01T00:05:49;100029.72;;;19.84;43.09
73936;BME280;62287;50.858;0.252;2023-08-01T00:06:20;100027.69;;;20.20;43.14
73936;BME280;62287;50.858;0.252;2023-08-01T00:06:53;100023.31;;;20.12;43.20
73936;BME280;62287;50.858;0.252;2023-08-01T00:07:26;100024.24;;;20.16;43.25
73936;BME280;62287;50.858;0.252;2023-08-01T00:07:58;100024.68;;;19.87;43.24
73936;BME280;62287;50.858;0.252;2023-08-01T00:08:29;100022.10;;;19.71;43.23
73936;BME280;62287;50.858;0.252;2023-08-01T00:09:02;100021.85;;;20.15;43.21
73936;BME280;62287;50.858;0.252;2023-08-01T00:09:38;100021.32;;;19.77;43.23
73936;BME280;62287;50.858;0.252;2023-08-01T00:10:09;100024.39;;;19.91;43.40
73936;BME280;62287;50.858;0.252;2023-08-01T00:10:41;100024.71;;;20.18;43.30
73936;BME280;62287;50.858;0.252;2023-08-01T00:11:13;100025.51;;;19.90;43.09
73936;BME280;62287;50.858;0.252;2023-08-01T00:11:45;100025.92;;;20.22;43.19
73936;BME280;62287;50.858;0.252;2023-08-01T00:12:16;100026.73;;;19.30;43.24
73936;BME280;62287;50.858;0.252;2023-08-01T00:12:47;100025.37;;;20.22;43.11
73936;BME280;62287;50.858;0.252;2023-08-01T00:13:18;100027.61;;;19.86;43.20
73936;BME280;62287;50.858;0.252;2023-08-01T00:13:49;100025.41;;;20.17;43.22
73936;BME280;62287;50.858;0.252;2023-08-01T00:14:21;100025.99;;;19.51;43.05
73936;BME280;62287;50.858;0.252;2023-08-01T00:14:52;100025.51;;;19.90;43.08
73936;BME280;62287;50.858;0.252;2023-08-01T00:15:24;100025.89;;;19.58;43.23
73936;BME280;62287;50.858;0.252;2023-08-01T00:15:58;100027.99;;;20.27;43.03
73936;BME280;62287;50.858;0.252;2023-08-01T00:16:29;100025.93;;;19.91;42.87
73936;BME280;62287;50.858;0.252;2023-08-01T00:17:02;100025.72;;;20.10;42.87
73936;BME280;62287;50.858;0.252;2023-08-01T00:17:37;100026.88;;;19.88;42.87
73936;BME280;62287;50.858;0.252;2023-08-01T00:18:08;100025.35;;;19.94;42.88
73936;BME280;62287;50.858;0.252;2023-08-01T00:18:41;100027.45;;;20.42;42.62
73936;BME280;62287;50.858;0.252;2023-08-01T00:19:13;100027.34;;;20.03;42.63
73936;BME280;62287;50.858;0.252;2023-08-01T00:19:45;100028.73;;;20.13;42.78
73936;BME280;62287;50.858;0.252;2023-08-01T00:20:18;100029.11;;;19.50;43.05
73936;BME280;62287;50.858;0.252;2023-08-01T00:20:53;100031.43;;;19.66;42.93
73936;BME280;62287;50.858;0.252;2023-08-01T00:21:25;100029.28;;;19.74;42.89
73936;BME280;62287;50.858;0.252;2023-08-01T00:21:57;100030.89;;;19.31;43.10
73936;BME280;62287;50.858;0.252;2023-08-01T00:22:30;100029.44;;;19.33;42.98
73936;BME280;62287;50.858;0.252;2023-08-01T00:23:03;100031.60;;;19.42;42.89
73936;BME280;62287;50.858;0.252;2023-08-01T00:23:34;100030.87;;;19.44;42.97
73936;BME280;62287;50.858;0.252;2023-08-01T00:24:07;100036.00;;;19.98;42.85
73936;BME280;62287;50.858;0.252;2023-08-01T00:24:38;100033.18;;;19.78;43.00
73936;BME280;62287;50.858;0.252;2023-08-01T00:25:09;100035.44;;;19.73;42.80
73936;BME280;62287;50.858;0.252;2023-08-01T00:25:42;100036.46;;;19.65;43.07
73936;BME280;62287;50.858;0.252;2023-08-01T00:26:13;100034.11;;;19.62;42.89
73936;BME280;62287;50.858;0.252;2023-08-01T00:26:46;100031.94;;;19.34;42.72
73936;BME280;62287;50.858;0.252;2023-08-01T00:27:17;100033.43;;;19.03;42.99
73936;BME280;62287;50.858;0.252;2023-08-01T00:27:50;100030.85;;;19.47;43.17
73936;BME280;62287;50.858;0.252;2023-08-01T00:28:23;100031.93;;;19.20;43.11
73936;BME280;62287;50.858;0.252;2023-08-01T00:28:56;100030.89;;;18.69;43.27
73936;BME280;62287;50.858;0.252;2023-08-01T00:29:27;100031.56;;;19.24;43.18
73936;BME280;62287;50.858;0.252;2023-08-01T00:29:58;100032.63;;;19.74;43.05
73936;BME280;62287;50.858;0.252;2023-08-01T00:30:32;100033.37;;;19.82;43.08
73936;BME280;62287;50.858;0.252;2023-08-01T00:31:05;100032.09;;;19.86;42.81
73936;BME280;62287;50.858;0.252;2023-08-01T00:31:36;100033.45;;;19.80;43.07
73936;BME280;62287;50.858;0.252;2023-08-01T00:32:07;100029.78;;;19.77;42.98
73936;BME280;62287;50.858;0.252;2023-08-01T00:32:43;100031.86;;;19.71;43.06
73936;BME280;62287;50.858;0.252;2023-08-01T00:33:16;100030.11;;;19.12;43.20
73936;BME280;62287;50.858;0.252;2023-08-01T00:33:47;100027.34;;;19.51;42.91
73936;BME280;62287;50.858;0.252;2023-08-01T00:34:20;100029.90;;;19.27;43.05
73936;BME280;62287;50.858;0.252;2023-08-01T00:34:51;100029.07;;;19.39;43.03
73936;BME280;62287;50.858;0.252;2023-08-01T00:35:22;100030.92;;;19.98;42.92
73936;BME280;62287;50.858;0.252;2023-08-01T00:35:54;100033.20;;;19.62;42.84
73936;BME280;62287;50.858;0.252;2023-08-01T00:36:25;100031.54;;;19.61;42.73
73936;BME280;62287;50.858;0.252;2023-08-01T00:36:57;100034.02;;;20.01;42.71
73936;BME280;62287;50.858;0.252;2023-08-01T00:37:28;100029.97;;;19.67;42.70
73936;BME280;62287;50.858;0.252;2023-08-01T00:38:02;100030.42;;;19.64;42.00
73936;BME280;62287;50.858;0.252;2023-08-01T00:38:39;100028.69;;;19.02;42.73
73936;BME280;62287;50.858;0.252;2023-08-01T00:39:10;100028.66;;;19.74;42.84
73936;BME280;62287;50.858;0.252;2023-08-01T00:39:43;100030.45;;;19.82;42.79
73936;BME280;62287;50.858;0.252;2023-08-01T00:40:16;100031.81;;;20.01;42.65
73936;BME280;62287;50.858;0.252;2023-08-01T00:40:47;100029.77;;;19.85;42.55
73936;BME280;62287;50.858;0.252;2023-08-01T00:41:19;100029.97;;;20.09;42.56
73936;BME280;62287;50.858;0.252;2023-08-01T00:41:50;100032.58;;;20.10;42.63
73936;BME280;62287;50.858;0.252;2023-08-01T00:42:26;100029.82;;;19.69;42.63
73936;BME280;62287;50.858;0.252;2023-08-01T00:42:58;100029.34;;;19.94;42.71
73936;BME280;62287;50.858;0.252;2023-08-01T00:43:29;100030.92;;;19.72;42.64
73936;BME280;62287;50.858;0.252;2023-08-01T00:44:00;100031.38;;;20.15;42.51
73936;BME280;62287;50.858;0.252;2023-08-01T00:44:31;100031.98;;;20.00;42.58
73936;BME280;62287;50.858;0.252;2023-08-01T00:45:03;100034.39;;;19.69;42.59
73936;BME280;62287;50.858;0.252;2023-08-01T00:45:34;100031.98;;;20.01;42.40
73936;BME280;62287;50.858;0.252;2023-08-01T00:46:06;100034.01;;;19.77;42.64
73936;BME280;62287;50.858;0.252;2023-08-01T00:46:38;100034.45;;;19.95;42.51
73936;BME280;62287;50.858;0.252;2023-08-01T00:47:15;100034.98;;;19.06;42.77
73936;BME280;62287;50.858;0.252;2023-08-01T00:47:47;100037.10;;;18.87;42.78
73936;BME280;62287;50.858;0.252;2023-08-01T00:48:18;100036.33;;;19.14;43.22
73936;BME280;62287;50.858;0.252;2023-08-01T00:48:49;100034.72;;;19.01;43.02
73936;BME280;62287;50.858;0.252;2023-08-01T00:49:20;100032.36;;;19.09;42.88
73936;BME280;62287;50.858;0.252;2023-08-01T00:49:51;100031.99;;;18.68;43.12
73936;BME280;62287;50.858;0.252;2023-08-01T00:50:24;100031.29;;;19.24;43.31
73936;BME280;62287;50.858;0.252;2023-08-01T00:50:55;100031.79;;;19.33;43.02
73936;BME280;62287;50.858;0.252;2023-08-01T00:51:26;100033.28;;;19.16;43.08
73936;BME280;62287;50.858;0.252;2023-08-01T00:51:58;100032.58;;;19.80;42.82
73936;BME280;62287;50.858;0.252;2023-08-01T00:52:30;100033.39;;;20.02;42.63
73936;BME280;62287;50.858;0.252;2023-08-01T00:53:01;100032.20;;;19.73;42.56
73936;BME280;62287;50.858;0.252;2023-08-01T00:53:32;100032.26;;;19.97;42.62
73936;BME280;62287;50.858;0.252;2023-08-01T00:54:03;100029.49;;;19.63;42.42
73936;BME280;62287;50.858;0.252;2023-08-01T00:54:35;100027.78;;;19.86;42.47
73936;BME280;62287;50.858;0.252;2023-08-01T00:55:07;100027.47;;;19.69;42.76
73936;BME280;62287;50.858;0.252;2023-08-01T00:55:38;100029.03;;;19.29;42.74
73936;BME280;62287;50.858;0.252;2023-08-01T00:56:10;100027.33;;;19.57;42.66
73936;BME280;62287;50.858;0.252;2023-08-01T00:56:41;100027.64;;;19.96;42.50
73936;BME280;62287;50.858;0.252;2023-08-01T00:57:12;100024.54;;;19.91;42.32
73936;BME280;62287;50.858;0.252;2023-08-01T00:57:43;100022.53;;;20.04;42.42
73936;BME280;62287;50.858;0.252;2023-08-01T00:58:15;100022.78;;;19.70;42.40
73936;BME280;62287;50.858;0.252;2023-08-01T00:58:47;100023.06;;;19.87;42.69
73936;BME280;62287;50.858;0.252;2023-08-01T00:59:18;100022.96;;;19.91;42.69
73936;BME280;62287;50.858;0.252;2023-08-01T00:59:49;100024.06;;;19.48;42.63
73936;BME280;62287;50.858;0.252;2023-08-01T01:00:23;100026.68;;;19.81;42.79
73936;BME280;62287;50.858;0.252;2023-08-01T01:00:54;100025.69;;;19.84;42.63
73936;BME280;62287;50.858;0.252;2023-08-01T01:01:28;100027.21;;;19.86;42.70
73936;BME280;62287;50.858;0.252;2023-08-01T01:02:01;100027.89;;;19.92;42.54
73936;BME280;62287;50.858;0.252;2023-08-01T01:02:33;100027.54;;;20.07;42.38
73936;BME280;62287;50.858;0.252;2023-08-01T01:03:04;100024.97;;;19.59;42.48
73936;BME280;62287;50.858;0.252;2023-08-01T01:03:36;100024.29;;;19.53;42.50
73936;BME280;62287;50.858;0.252;2023-08-01T01:04:08;100025.29;;;19.95;42.39
73936;BME280;62287;50.858;0.252;2023-08-01T01:04:39;100026.73;;;19.61;42.50
73936;BME280;62287;50.858;0.252;2023-08-01T01:05:10;100023.77;;;19.64;42.48
73936;BME280;62287;50.858;0.252;2023-08-01T01:05:49;100023.07;;;19.45;42.41
73936;BME280;62287;50.858;0.252;2023-08-01T01:06:26;100024.12;;;19.76;42.45
73936;BME280;62287;50.858;0.252;2023-08-01T01:07:02;100025.05;;;19.74;42.65
73936;BME280;62287;50.858;0.252;2023-08-01T01:07:33;100025.41;;;20.08;42.46
73936;BME280;62287;50.858;0.252;2023-08-01T01:08:05;100022.85;;;19.35;42.50
73936;BME280;62287;50.858;0.252;2023-08-01T01:08:38;100024.58;;;19.90;42.58
73936;BME280;62287;50.858;0.252;2023-08-01T01:09:16;100022.95;;;19.48;42.42
73936;BME280;62287;50.858;0.252;2023-08-01T01:09:48;100025.34;;;20.09;42.39
73936;BME280;62287;50.858;0.252;2023-08-01T01:10:20;100023.59;;;20.00;42.35
73936;BME280;62287;50.858;0.252;2023-08-01T01:10:53;100024.36;;;20.08;42.35
73936;BME280;62287;50.858;0.252;2023-08-01T01:11:25;100019.29;;;20.13;42.31
73936;BME280;62287;50.858;0.252;2023-08-01T01:11:57;100021.75;;;19.45;42.57
73936;BME280;62287;50.858;0.252;2023-08-01T01:12:28;100019.13;;;19.37;42.52
73936;BME280;62287;50.858;0.252;2023-08-01T01:13:01;100021.70;;;19.25;42.81
73936;BME280;62287;50.858;0.252;2023-08-01T01:13:33;100018.91;;;19.20;42.67
73936;BME280;62287;50.858;0.252;2023-08-01T01:14:05;100020.74;;;19.61;42.89
73936;BME280;62287;50.858;0.252;2023-08-01T01:14:36;100019.67;;;19.81;42.65
73936;BME280;62287;50.858;0.252;2023-08-01T01:15:08;100020.00;;;19.66;42.66
73936;BME280;62287;50.858;0.252;2023-08-01T01:15:42;100018.48;;;19.31;42.46
73936;BME280;62287;50.858;0.252;2023-08-01T01:16:16;100020.52;;;20.04;42.53
73936;BME280;62287;50.858;0.252;2023-08-01T01:16:49;100021.91;;;19.35;42.57
73936;BME280;62287;50.858;0.252;2023-08-01T01:17:21;100017.94;;;19.72;42.70
73936;BME280;62287;50.858;0.252;2023-08-01T01:18:35;100020.92;;;19.39;42.79
73936;BME280;62287;50.858;0.252;2023-08-01T01:19:08;100022.51;;;19.31;42.78
73936;BME280;62287;50.858;0.252;2023-08-01T01:19:39;100023.06;;;19.73;42.72
73936;BME280;62287;50.858;0.252;2023-08-01T01:20:12;100025.17;;;19.42;42.64
73936;BME280;62287;50.858;0.252;2023-08-01T01:20:43;100025.08;;;19.62;42.55
73936;BME280;62287;50.858;0.252;2023-08-01T01:21:14;100026.05;;;19.62;42.58
73936;BME280;62287;50.858;0.252;2023-08-01T01:21:46;100026.53;;;19.80;42.61
73936;BME280;62287;50.858;0.252;2023-08-01T01:22:19;100026.31;;;19.56;42.76
73936;BME280;62287;50.858;0.252;2023-08-01T01:22:52;100026.40;;;19.77;42.56
73936;BME280;62287;50.858;0.252;2023-08-01T01:23:26;100027.76;;;19.81;42.41
73936;BME280;62287;50.858;0.252;2023-08-01T01:23:59;100027.42;;;19.86;42.53
73936;BME280;62287;50.858;0.252;2023-08-01T01:24:31;100028.87;;;19.96;42.48
73936;BME280;62287;50.858;0.252;2023-08-01T01:25:05;100029.89;;;20.05;42.40
73936;BME280;62287;50.858;0.252;2023-08-01T01:25:38;100028.64;;;19.83;42.58
73936;BME280;62287;50.858;0.252;2023-08-01T01:26:16;100031.17;;;19.76;42.57
73936;BME280;62287;50.858;0.252;2023-08-01T01:26:48;100032.25;;;19.45;42.29
73936;BME280;62287;50.858;0.252;2023-08-01T01:27:21;100033.83;;;19.62;42.63
73936;BME280;62287;50.858;0.252;2023-08-01T01:27:54;100034.25;;;19.32;42.55
73936;BME280;62287;50.858;0.252;2023-08-01T01:28:25;100032.79;;;19.43;42.46
73936;BME280;62287;50.858;0.252;2023-08-01T01:29:03;100033.30;;;19.33;42.80
73936;BME280;62287;50.858;0.252;2023-08-01T01:29:36;100032.77;;;19.10;42.72
73936;BME280;62287;50.858;0.252;2023-08-01T01:30:10;100033.92;;;19.62;42.76
73936;BME280;62287;50.858;0.252;2023-08-01T01:30:43;100033.65;;;19.47;42.71
73936;BME280;62287;50.858;0.252;2023-08-01T01:31:16;100034.62;;;19.23;42.65
73936;BME280;62287;50.858;0.252;2023-08-01T01:31:49;100034.98;;;19.70;42.53
73936;BME280;62287;50.858;0.252;2023-08-01T01:32:21;100033.65;;;19.47;42.67
73936;BME280;62287;50.858;0.252;2023-08-01T01:32:53;100034.55;;;19.47;42.68
73936;BME280;62287;50.858;0.252;2023-08-01T01:33:25;100035.01;;;19.43;42.79
73936;BME280;62287;50.858;0.252;2023-08-01T01:33:58;100037.35;;;19.62;42.74
73936;BME280;62287;50.858;0.252;2023-08-01T01:34:32;100037.48;;;19.74;42.55
73936;BME280;62287;50.858;0.252;2023-08-01T01:35:07;100036.67;;;19.73;42.62
73936;BME280;62287;50.858;0.252;2023-08-01T01:35:43;100037.78;;;19.16;42.84
73936;BME280;62287;50.858;0.252;2023-08-01T01:36:15;100036.93;;;19.33;42.58
73936;BME280;62287;50.858;0.252;2023-08-01T01:36:47;100038.57;;;19.55;42.77
73936;BME280;62287;50.858;0.252;2023-08-01T01:37:18;100038.84;;;19.96;42.70
73936;BME280;62287;50.858;0.252;2023-08-01T01:38:02;100041.17;;;19.03;42.58
73936;BME280;62287;50.858;0.252;2023-08-01T01:38:34;100036.63;;;19.34;42.78
73936;BME280;62287;50.858;0.252;2023-08-01T01:39:06;100034.74;;;19.63;42.65
73936;BME280;62287;50.858;0.252;2023-08-01T01:39:38;100036.94;;;19.59;42.65
73936;BME280;62287;50.858;0.252;2023-08-01T01:40:10;100036.14;;;19.23;42.60
73936;BME280;62287;50.858;0.252;2023-08-01T01:40:47;100036.17;;;18.82;42.91
73936;BME280;62287;50.858;0.252;2023-08-01T01:41:19;100034.91;;;19.61;42.49
73936;BME280;62287;50.858;0.252;2023-08-01T01:41:53;100034.01;;;19.49;42.49
73936;BME280;62287;50.858;0.252;2023-08-01T01:42:27;100036.26;;;19.41;42.24
73936;BME280;62287;50.858;0.252;2023-08-01T01:43:00;100036.05;;;19.41;42.61
73936;BME280;62287;50.858;0.252;2023-08-01T01:43:33;100036.95;;;19.41;42.59
73936;BME280;62287;50.858;0.252;2023-08-01T01:44:04;100038.36;;;19.09;42.85
73936;BME280;62287;50.858;0.252;2023-08-01T01:44:36;100035.09;;;19.39;42.85
73936;BME280;62287;50.858;0.252;2023-08-01T01:45:08;100038.42;;;19.19;42.60
73936;BME280;62287;50.858;0.252;2023-08-01T01:45:44;100037.44;;;19.30;42.33
73936;BME280;62287;50.858;0.252;2023-08-01T01:46:16;100038.64;;;19.17;42.65
73936;BME280;62287;50.858;0.252;2023-08-01T01:46:48;100038.23;;;19.08;42.69
73936;BME280;62287;50.858;0.252;2023-08-01T01:47:19;100038.40;;;19.10;42.86
73936;BME280;62287;50.858;0.252;2023-08-01T01:47:51;100039.32;;;19.12;42.88
73936;BME280;62287;50.858;0.252;2023-08-01T01:48:22;100042.62;;;19.44;42.65
73936;BME280;62287;50.858;0.252;2023-08-01T01:48:56;100039.80;;;19.76;42.45
73936;BME280;62287;50.858;0.252;2023-08-01T01:49:27;100041.09;;;19.22;42.50
73936;BME280;62287;50.858;0.252;2023-08-01T01:49:58;100041.02;;;19.66;42.39
73936;BME280;62287;50.858;0.252;2023-08-01T01:50:30;100041.28;;;19.44;42.55
73936;BME280;62287;50.858;0.252;2023-08-01T01:51:01;100040.50;;;19.55;42.58
73936;BME280;62287;50.858;0.252;2023-08-01T01:51:32;100036.69;;;19.34;42.43
73936;BME280;62287;50.858;0.252;2023-08-01T01:52:04;100039.27;;;19.47;42.58
73936;BME280;62287;50.858;0.252;2023-08-01T01:52:35;100040.88;;;19.40;42.56
73936;BME280;62287;50.858;0.252;2023-08-01T01:53:06;100039.33;;;19.21;42.66
73936;BME280;62287;50.858;0.252;2023-08-01T01:53:37;100038.21;;;19.17;42.60
73936;BME280;62287;50.858;0.252;2023-08-01T01:54:09;100041.21;;;19.16;42.76
73936;BME280;62287;50.858;0.252;2023-08-01T01:54:41;100039.75;;;19.11;42.75
73936;BME280;62287;50.858;0.252;2023-08-01T01:55:12;100041.25;;;18.83;42.85
73936;BME280;62287;50.858;0.252;2023-08-01T01:55:44;100041.78;;;18.97;42.88
73936;BME280;62287;50.858;0.252;2023-08-01T01:56:17;100040.41;;;18.83;42.68
73936;BME280;62287;50.858;0.252;2023-08-01T01:56:49;100038.84;;;18.71;42.97
73936;BME280;62287;50.858;0.252;2023-08-01T01:57:21;100042.17;;;19.07;42.91
73936;BME280;62287;50.858;0.252;2023-08-01T01:57:54;100038.60;;;19.08;42.82
73936;BME280;62287;50.858;0.252;2023-08-01T01:58:26;100040.63;;;19.30;42.75
73936;BME280;62287;50.858;0.252;2023-08-01T01:58:58;100042.30;;;19.00;42.69
73936;BME280;62287;50.858;0.252;2023-08-01T01:59:29;100040.60;;;18.96;42.70
73936;BME280;62287;50.858;0.252;2023-08-01T02:00:01;100037.29;;;18.79;42.87
73936;BME280;62287;50.858;0.252;2023-08-01T02:00:33;100041.31;;;19.33;43.04
73936;BME280;62287;50.858;0.252;2023-08-01T02:01:05;100036.29;;;19.26;43.09
73936;BME280;62287;50.858;0.252;2023-08-01T02:01:36;100036.70;;;19.04;42.96
73936;BME280;62287;50.858;0.252;2023-08-01T02:02:07;100036.72;;;18.91;43.07
73936;BME280;62287;50.858;0.252;2023-08-01T02:02:39;100036.81;;;19.07;42.92
73936;BME280;62287;50.858;0.252;2023-08-01T02:03:11;100037.12;;;19.15;42.89
73936;BME280;62287;50.858;0.252;2023-08-01T02:03:42;100034.99;;;19.17;42.85
73936;BME280;62287;50.858;0.252;2023-08-01T02:04:19;100035.22;;;19.49;42.55
73936;BME280;62287;50.858;0.252;2023-08-01T02:04:51;100036.38;;;19.46;42.69
73936;BME280;62287;50.858;0.252;2023-08-01T02:05:22;100033.82;;;19.42;42.73
73936;BME280;62287;50.858;0.252;2023-08-01T02:05:54;100035.01;;;19.68;42.36
73936;BME280;62287;50.858;0.252;2023-08-01T02:06:25;100033.31;;;19.56;42.44
73936;BME280;62287;50.858;0.252;2023-08-01T02:06:56;100036.99;;;19.26;42.45
73936;BME280;62287;50.858;0.252;2023-08-01T02:07:27;100035.30;;;19.22;42.71
73936;BME280;62287;50.858;0.252;2023-08-01T02:07:58;100033.02;;;19.23;42.58
73936;BME280;62287;50.858;0.252;2023-08-01T02:08:29;100034.70;;;18.95;42.07
73936;BME280;62287;50.858;0.252;2023-08-01T02:09:01;100032.28;;;19.20;42.79
73936;BME280;62287;50.858;0.252;2023-08-01T02:09:33;100031.65;;;19.07;42.72
73936;BME280;62287;50.858;0.252;2023-08-01T02:10:08;100032.54;;;19.32;42.55
73936;BME280;62287;50.858;0.252;2023-08-01T02:10:40;100033.00;;;19.15;42.55
73936;BME280;62287;50.858;0.252;2023-08-01T02:11:12;100034.82;;;19.98;42.73
73936;BME280;62287;50.858;0.252;2023-08-01T02:11:43;100031.46;;;19.05;42.86
73936;BME280;62287;50.858;0.252;2023-08-01T02:12:14;100034.32;;;19.81;42.68
73936;BME280;62287;50.858;0.252;2023-08-01T02:12:46;100033.72;;;19.26;42.52
73936;BME280;62287;50.858;0.252;2023-08-01T02:13:17;100034.36;;;19.15;42.63
73936;BME280;62287;50.858;0.252;2023-08-01T02:13:49;100034.23;;;19.45;42.56
73936;BME280;62287;50.858;0.252;2023-08-01T02:14:21;100031.06;;;19.42;42.49
73936;BME280;62287;50.858;0.252;2023-08-01T02:14:53;100033.20;;;19.70;42.22
73936;BME280;62287;50.858;0.252;2023-08-01T02:15:24;100032.49;;;19.58;42.14
73936;BME280;62287;50.858;0.252;2023-08-01T02:16:03;100034.11;;;19.43;42.36
73936;BME280;62287;50.858;0.252;2023-08-01T02:16:36;100032.94;;;19.36;42.32
73936;BME280;62287;50.858;0.252;2023-08-01T02:17:09;100029.41;;;19.97;42.20
73936;BME280;62287;50.858;0.252;2023-08-01T02:17:40;100031.68;;;19.57;42.33
73936;BME280;62287;50.858;0.252;2023-08-01T02:18:11;100029.85;;;19.69;42.10
73936;BME280;62287;50.858;0.252;2023-08-01T02:18:46;100028.37;;;19.74;42.07
73936;BME280;62287;50.858;0.252;2023-08-01T02:19:18;100030.29;;;20.15;41.79
73936;BME280;62287;50.858;0.252;2023-08-01T02:19:50;100029.35;;;20.55;42.00
73936;BME280;62287;50.858;0.252;2023-08-01T02:20:22;100028.71;;;19.94;41.84
73936;BME280;62287;50.858;0.252;2023-08-01T02:21:01;100028.69;;;19.91;41.56
73936;BME280;62287;50.858;0.252;2023-08-01T02:21:36;100028.32;;;19.95;41.90
73936;BME280;62287;50.858;0.252;2023-08-01T02:22:08;100027.88;;;19.69;42.02
73936;BME280;62287;50.858;0.252;2023-08-01T02:22:40;100028.52;;;19.56;42.11
73936;BME280;62287;50.858;0.252;2023-08-01T02:23:25;100027.89;;;19.57;42.22
73936;BME280;62287;50.858;0.252;2023-08-01T02:23:59;100029.70;;;19.75;42.09
73936;BME280;62287;50.858;0.252;2023-08-01T02:24:30;100029.56;;;19.43;41.93
73936;BME280;62287;50.858;0.252;2023-08-01T02:25:04;100029.38;;;19.70;42.04
73936;BME280;62287;50.858;0.252;2023-08-01T02:25:41;100030.78;;;19.71;42.01
73936;BME280;62287;50.858;0.252;2023-08-01T02:26:12;100030.73;;;19.87;42.01
73936;BME280;62287;50.858;0.252;2023-08-01T02:26:43;100028.89;;;19.79;41.96
73936;BME280;62287;50.858;0.252;2023-08-01T02:27:14;100031.25;;;19.53;42.10
73936;BME280;62287;50.858;0.252;2023-08-01T02:27:46;100029.25;;;19.33;42.10
73936;BME280;62287;50.858;0.252;2023-08-01T02:28:18;100030.74;;;19.52;41.91
73936;BME280;62287;50.858;0.252;2023-08-01T02:28:50;100035.05;;;19.96;41.78
73936;BME280;62287;50.858;0.252;2023-08-01T02:29:21;100034.83;;;19.29;41.94
73936;BME280;62287;50.858;0.252;2023-08-01T02:29:52;100032.03;;;19.71;41.98
73936;BME280;62287;50.858;0.252;2023-08-01T02:30:26;100031.92;;;19.57;42.15
73936;BME280;62287;50.858;0.252;2023-08-01T02:30:58;100033.44;;;19.44;42.13
73936;BME280;62287;50.858;0.252;2023-08-01T02:31:29;100033.91;;;19.39;41.97
73936;BME280;62287;50.858;0.252;2023-08-01T02:32:01;100032.70;;;19.77;41.98
73936;BME280;62287;50.858;0.252;2023-08-01T02:32:32;100033.90;;;19.25;41.88
73936;BME280;62287;50.858;0.252;2023-08-01T02:33:06;100036.06;;;19.73;41.94
73936;BME280;62287;50.858;0.252;2023-08-01T02:33:37;100034.81;;;19.52;42.07
73936;BME280;62287;50.858;0.252;2023-08-01T02:34:10;100033.10;;;19.60;42.03
73936;BME280;62287;50.858;0.252;2023-08-01T02:34:43;100031.59;;;19.60;42.01
73936;BME280;62287;50.858;0.252;2023-08-01T02:35:20;100032.72;;;18.91;41.90
73936;BME280;62287;50.858;0.252;2023-08-01T02:35:51;100028.99;;;18.42;42.51
73936;BME280;62287;50.858;0.252;2023-08-01T02:36:28;100030.57;;;19.32;42.42
73936;BME280;62287;50.858;0.252;2023-08-01T02:37:03;100032.06;;;18.46;42.47
73936;BME280;62287;50.858;0.252;2023-08-01T02:37:36;100030.00;;;18.45;42.79
73936;BME280;62287;50.858;0.252;2023-08-01T02:38:08;100036.02;;;19.14;42.62
73936;BME280;62287;50.858;0.252;2023-08-01T02:38:39;100031.25;;;19.18;42.37
73936;BME280;62287;50.858;0.252;2023-08-01T02:39:10;100033.35;;;19.39;42.56
73936;BME280;62287;50.858;0.252;2023-08-01T02:39:41;100033.55;;;19.15;42.44
73936;BME280;62287;50.858;0.252;2023-08-01T02:40:13;100031.60;;;18.74;42.27
73936;BME280;62287;50.858;0.252;2023-08-01T02:40:44;100030.55;;;18.73;42.53
73936;BME280;62287;50.858;0.252;2023-08-01T02:41:15;100032.29;;;18.88;42.43
73936;BME280;62287;50.858;0.252;2023-08-01T02:41:46;100035.19;;;19.46;42.30
73936;BME280;62287;50.858;0.252;2023-08-01T02:42:19;100035.76;;;19.18;42.09
73936;BME280;62287;50.858;0.252;2023-08-01T02:42:50;100033.64;;;18.50;41.53
73936;BME280;62287;50.858;0.252;2023-08-01T02:43:21;100034.79;;;18.51;42.46
73936;BME280;62287;50.858;0.252;2023-08-01T02:44:00;100033.54;;;18.57;42.65
73936;BME280;62287;50.858;0.252;2023-08-01T02:44:32;100033.67;;;18.31;42.58
73936;BME280;62287;50.858;0.252;2023-08-01T02:45:08;100034.99;;;18.46;42.69
73936;BME280;62287;50.858;0.252;2023-08-01T02:45:41;100036.87;;;17.88;42.87
73936;BME280;62287;50.858;0.252;2023-08-01T02:46:13;100036.35;;;19.33;42.78
73936;BME280;62287;50.858;0.252;2023-08-01T02:46:44;100037.47;;;18.37;42.69
73936;BME280;62287;50.858;0.252;2023-08-01T02:47:16;100037.80;;;18.59;42.98
73936;BME280;62287;50.858;0.252;2023-08-01T02:47:48;100039.13;;;18.87;42.65
73936;BME280;62287;50.858;0.252;2023-08-01T02:48:19;100039.01;;;19.11;42.55
73936;BME280;62287;50.858;0.252;2023-08-01T02:48:51;100037.24;;;18.48;42.53
73936;BME280;62287;50.858;0.252;2023-08-01T02:49:26;100041.82;;;18.31;43.05
73936;BME280;62287;50.858;0.252;2023-08-01T02:49:58;100042.64;;;18.68;42.55